sensor_id;sensor_type;location;lat;lon;timestamp;temperature;humidity
78896;HTU21D;68284;59.124;37.910;2024-02-21T00:00:27;-6.09;72.41
78896;HTU21D;68284;59.124;37.910;2024-02-21T00:02:54;-6.13;72.42
78896;HTU21D;68284;59.124;37.910;2024-02-21T00:05:21;-6.15;72.45
78896;HTU21D;68284;59.124;37.910;2024-02-21T00:07:49;-6.16;72.54
78896;HTU21D;68284;59.124;37.910;2024-02-21T00:10:15;-6.15;72.64
78896;HTU21D;68284;59.124;37.910;2024-02-21T00:12:42;-6.16;72.52
78896;HTU21D;68284;59.124;37.910;2024-02-21T00:15:10;-6.18;72.53
78896;HTU21D;68284;59.124;37.910;2024-02-21T00:17:36;-6.17;72.56
78896;HTU21D;68284;59.124;37.910;2024-02-21T00:20:03;-6.17;72.58
78896;HTU21D;68284;59.124;37.910;2024-02-21T00:22:29;-6.16;72.59
78896;HTU21D;68284;59.124;37.910;2024-02-21T00:24:57;-6.15;72.61
78896;HTU21D;68284;59.124;37.910;2024-02-21T00:27:25;-6.17;72.63
78896;HTU21D;68284;59.124;37.910;2024-02-21T00:29:51;-6.15;72.64
78896;HTU21D;68284;59.124;37.910;2024-02-21T00:32:17;-6.18;72.63
78896;HTU21D;68284;59.124;37.910;2024-02-21T00:34:44;-6.18;72.66
78896;HTU21D;68284;59.124;37.910;2024-02-21T00:37:10;-6.21;72.68
78896;HTU21D;68284;59.124;37.910;2024-02-21T00:39:37;-6.22;72.70
78896;HTU21D;68284;59.124;37.910;2024-02-21T00:42:03;-6.23;72.69
78896;HTU21D;68284;59.124;37.910;2024-02-21T00:44:31;-6.27;72.77
78896;HTU21D;68284;59.124;37.910;2024-02-21T00:46:57;-6.26;72.80
78896;HTU21D;68284;59.124;37.910;2024-02-21T00:49:23;-6.24;72.83
78896;HTU21D;68284;59.124;37.910;2024-02-21T00:51:50;-6.24;72.84
78896;HTU21D;68284;59.124;37.910;2024-02-21T00:54:17;-6.23;72.78
78896;HTU21D;68284;59.124;37.910;2024-02-21T00:56:43;-6.23;72.74
78896;HTU21D;68284;59.124;37.910;2024-02-21T00:59:09;-6.27;72.76
78896;HTU21D;68284;59.124;37.910;2024-02-21T01:01:36;-6.29;72.78
78896;HTU21D;68284;59.124;37.910;2024-02-21T01:04:02;-6.31;72.80
78896;HTU21D;68284;59.124;37.910;2024-02-21T01:06:28;-6.35;72.82
78896;HTU21D;68284;59.124;37.910;2024-02-21T01:08:56;-6.39;72.89
78896;HTU21D;68284;59.124;37.910;2024-02-21T01:11:23;-6.43;72.96
78896;HTU21D;68284;59.124;37.910;2024-02-21T01:13:49;-6.45;72.96
78896;HTU21D;68284;59.124;37.910;2024-02-21T01:16:15;-6.48;72.99
78896;HTU21D;68284;59.124;37.910;2024-02-21T01:18:42;-6.51;73.07
78896;HTU21D;68284;59.124;37.910;2024-02-21T01:21:08;-6.52;73.13
78896;HTU21D;68284;59.124;37.910;2024-02-21T01:23:36;-6.55;73.18
78896;HTU21D;68284;59.124;37.910;2024-02-21T01:26:04;-6.56;73.16
78896;HTU21D;68284;59.124;37.910;2024-02-21T01:28:33;-6.58;73.16
78896;HTU21D;68284;59.124;37.910;2024-02-21T01:31:00;-6.60;73.18
78896;HTU21D;68284;59.124;37.910;2024-02-21T01:33:26;-6.60;73.20
78896;HTU21D;68284;59.124;37.910;2024-02-21T01:35:53;-6.62;73.20
78896;HTU21D;68284;59.124;37.910;2024-02-21T01:38:19;-6.62;73.23
78896;HTU21D;68284;59.124;37.910;2024-02-21T01:40:47;-6.64;73.20
78896;HTU21D;68284;59.124;37.910;2024-02-21T01:43:19;-6.61;73.23
78896;HTU21D;68284;59.124;37.910;2024-02-21T01:45:49;-6.58;73.18
78896;HTU21D;68284;59.124;37.910;2024-02-21T01:48:19;-6.57;73.15
78896;HTU21D;68284;59.124;37.910;2024-02-21T01:50:46;-6.55;73.10
78896;HTU21D;68284;59.124;37.910;2024-02-21T01:53:13;-6.55;73.06
78896;HTU21D;68284;59.124;37.910;2024-02-21T01:55:47;-6.57;72.87
78896;HTU21D;68284;59.124;37.910;2024-02-21T01:58:15;-6.63;72.88
78896;HTU21D;68284;59.124;37.910;2024-02-21T02:00:43;-6.67;72.94
78896;HTU21D;68284;59.124;37.910;2024-02-21T02:03:12;-6.71;72.99
78896;HTU21D;68284;59.124;37.910;2024-02-21T02:05:46;-6.76;72.82
78896;HTU21D;68284;59.124;37.910;2024-02-21T02:08:14;-6.80;72.87
78896;HTU21D;68284;59.124;37.910;2024-02-21T02:10:41;-6.88;72.93
78896;HTU21D;68284;59.124;37.910;2024-02-21T02:13:09;-6.92;73.08
78896;HTU21D;68284;59.124;37.910;2024-02-21T02:15:43;-6.94;73.18
78896;HTU21D;68284;59.124;37.910;2024-02-21T02:18:10;-6.94;73.22
78896;HTU21D;68284;59.124;37.910;2024-02-21T02:20:36;-6.91;73.25
78896;HTU21D;68284;59.124;37.910;2024-02-21T02:23:11;-6.87;73.27
78896;HTU21D;68284;59.124;37.910;2024-02-21T02:25:38;-6.82;73.15
78896;HTU21D;68284;59.124;37.910;2024-02-21T02:28:08;-6.79;73.11
78896;HTU21D;68284;59.124;37.910;2024-02-21T02:30:35;-6.75;73.08
78896;HTU21D;68284;59.124;37.910;2024-02-21T02:33:03;-6.73;73.03
78896;HTU21D;68284;59.124;37.910;2024-02-21T02:35:29;-6.67;72.96
78896;HTU21D;68284;59.124;37.910;2024-02-21T02:37:56;-6.64;72.90
78896;HTU21D;68284;59.124;37.910;2024-02-21T02:40:24;-6.59;72.82
78896;HTU21D;68284;59.124;37.910;2024-02-21T02:42:51;-6.57;72.66
78896;HTU21D;68284;59.124;37.910;2024-02-21T02:45:18;-6.52;72.61
78896;HTU21D;68284;59.124;37.910;2024-02-21T02:47:45;-6.50;72.54
78896;HTU21D;68284;59.124;37.910;2024-02-21T02:50:14;-6.49;72.49
78896;HTU21D;68284;59.124;37.910;2024-02-21T02:52:41;-6.49;72.47
78896;HTU21D;68284;59.124;37.910;2024-02-21T02:55:07;-6.50;72.37
78896;HTU21D;68284;59.124;37.910;2024-02-21T02:57:34;-6.52;72.32
78896;HTU21D;68284;59.124;37.910;2024-02-21T03:00:00;-6.58;72.37
78896;HTU21D;68284;59.124;37.910;2024-02-21T03:02:26;-6.62;72.49
78896;HTU21D;68284;59.124;37.910;2024-02-21T03:04:53;-6.65;72.58
78896;HTU21D;68284;59.124;37.910;2024-02-21T03:07:20;-6.64;72.68
78896;HTU21D;68284;59.124;37.910;2024-02-21T03:09:46;-6.65;72.64
78896;HTU21D;68284;59.124;37.910;2024-02-21T03:12:14;-6.65;72.64
78896;HTU21D;68284;59.124;37.910;2024-02-21T03:14:45;-6.67;72.58
78896;HTU21D;68284;59.124;37.910;2024-02-21T03:17:14;-6.72;72.64
78896;HTU21D;68284;59.124;37.910;2024-02-21T03:19:41;-6.74;72.76
78896;HTU21D;68284;59.124;37.910;2024-02-21T03:22:08;-6.76;72.76
78896;HTU21D;68284;59.124;37.910;2024-02-21T03:24:34;-6.76;72.84
78896;HTU21D;68284;59.124;37.910;2024-02-21T03:27:01;-6.76;72.83
78896;HTU21D;68284;59.124;37.910;2024-02-21T03:29:28;-6.73;72.82
78896;HTU21D;68284;59.124;37.910;2024-02-21T03:31:54;-6.72;72.79
78896;HTU21D;68284;59.124;37.910;2024-02-21T03:34:21;-6.71;72.78
78896;HTU21D;68284;59.124;37.910;2024-02-21T03:36:48;-6.66;72.79
78896;HTU21D;68284;59.124;37.910;2024-02-21T03:39:14;-6.63;72.77
78896;HTU21D;68284;59.124;37.910;2024-02-21T03:41:41;-6.60;72.70
78896;HTU21D;68284;59.124;37.910;2024-02-21T03:44:07;-6.56;72.67
78896;HTU21D;68284;59.124;37.910;2024-02-21T03:46:33;-6.49;72.61
78896;HTU21D;68284;59.124;37.910;2024-02-21T03:49:00;-6.46;72.51
78896;HTU21D;68284;59.124;37.910;2024-02-21T03:51:27;-6.43;72.47
78896;HTU21D;68284;59.124;37.910;2024-02-21T03:53:56;-6.39;72.48
78896;HTU21D;68284;59.124;37.910;2024-02-21T03:56:23;-6.36;72.50
78896;HTU21D;68284;59.124;37.910;2024-02-21T03:58:50;-6.33;72.40
78896;HTU21D;68284;59.124;37.910;2024-02-21T04:01:16;-6.28;72.32
78896;HTU21D;68284;59.124;37.910;2024-02-21T04:03:43;-6.22;72.29
78896;HTU21D;68284;59.124;37.910;2024-02-21T04:06:10;-6.18;72.19
78896;HTU21D;68284;59.124;37.910;2024-02-21T04:08:38;-6.14;72.17
78896;HTU21D;68284;59.124;37.910;2024-02-21T04:11:04;-6.14;72.16
78896;HTU21D;68284;59.124;37.910;2024-02-21T04:13:31;-6.12;72.16
78896;HTU21D;68284;59.124;37.910;2024-02-21T04:15:57;-6.12;72.26
78896;HTU21D;68284;59.124;37.910;2024-02-21T04:18:26;-6.09;72.22
78896;HTU21D;68284;59.124;37.910;2024-02-21T04:20:52;-6.08;72.23
78896;HTU21D;68284;59.124;37.910;2024-02-21T04:23:18;-6.07;72.21
78896;HTU21D;68284;59.124;37.910;2024-02-21T04:25:45;-6.06;72.16
78896;HTU21D;68284;59.124;37.910;2024-02-21T04:28:12;-6.08;72.18
78896;HTU21D;68284;59.124;37.910;2024-02-21T04:30:39;-6.08;72.23
78896;HTU21D;68284;59.124;37.910;2024-02-21T04:33:06;-6.08;72.28
78896;HTU21D;68284;59.124;37.910;2024-02-21T04:35:32;-6.04;72.19
78896;HTU21D;68284;59.124;37.910;2024-02-21T04:37:58;-6.02;72.10
78896;HTU21D;68284;59.124;37.910;2024-02-21T04:40:25;-6.00;72.08
78896;HTU21D;68284;59.124;37.910;2024-02-21T04:42:51;-5.98;72.09
78896;HTU21D;68284;59.124;37.910;2024-02-21T04:45:17;-5.94;72.05
78896;HTU21D;68284;59.124;37.910;2024-02-21T04:47:44;-5.93;71.98
78896;HTU21D;68284;59.124;37.910;2024-02-21T04:50:10;-5.91;71.92
78896;HTU21D;68284;59.124;37.910;2024-02-21T04:52:37;-5.88;71.89
78896;HTU21D;68284;59.124;37.910;2024-02-21T04:55:03;-5.86;71.80
78896;HTU21D;68284;59.124;37.910;2024-02-21T04:57:30;-5.87;71.77
78896;HTU21D;68284;59.124;37.910;2024-02-21T04:59:56;-5.85;71.75
78896;HTU21D;68284;59.124;37.910;2024-02-21T05:02:24;-5.85;71.74
78896;HTU21D;68284;59.124;37.910;2024-02-21T05:04:53;-5.85;71.70
78896;HTU21D;68284;59.124;37.910;2024-02-21T05:07:19;-5.85;71.68
78896;HTU21D;68284;59.124;37.910;2024-02-21T05:09:47;-5.84;71.72
78896;HTU21D;68284;59.124;37.910;2024-02-21T05:12:15;-5.84;71.71
78896;HTU21D;68284;59.124;37.910;2024-02-21T05:14:41;-5.83;71.76
78896;HTU21D;68284;59.124;37.910;2024-02-21T05:17:08;-5.83;71.74
78896;HTU21D;68284;59.124;37.910;2024-02-21T05:19:34;-5.83;71.78
78896;HTU21D;68284;59.124;37.910;2024-02-21T05:22:01;-5.83;71.87
78896;HTU21D;68284;59.124;37.910;2024-02-21T05:24:27;-5.83;71.84
78896;HTU21D;68284;59.124;37.910;2024-02-21T05:26:54;-5.83;71.78
78896;HTU21D;68284;59.124;37.910;2024-02-21T05:29:20;-5.82;71.71
78896;HTU21D;68284;59.124;37.910;2024-02-21T05:34:19;-5.86;71.63
78896;HTU21D;68284;59.124;37.910;2024-02-21T05:36:46;-5.88;71.70
78896;HTU21D;68284;59.124;37.910;2024-02-21T05:39:13;-5.88;71.77
78896;HTU21D;68284;59.124;37.910;2024-02-21T05:41:40;-5.88;71.75
78896;HTU21D;68284;59.124;37.910;2024-02-21T05:44:07;-5.89;71.74
78896;HTU21D;68284;59.124;37.910;2024-02-21T05:46:33;-5.88;71.82
78896;HTU21D;68284;59.124;37.910;2024-02-21T05:48:59;-5.88;71.87
78896;HTU21D;68284;59.124;37.910;2024-02-21T05:51:26;-5.83;72.46
78896;HTU21D;68284;59.124;37.910;2024-02-21T05:53:52;-5.65;72.92
78896;HTU21D;68284;59.124;37.910;2024-02-21T05:56:19;-5.58;72.84
78896;HTU21D;68284;59.124;37.910;2024-02-21T05:58:45;-5.54;72.54
78896;HTU21D;68284;59.124;37.910;2024-02-21T06:01:11;-5.49;72.26
78896;HTU21D;68284;59.124;37.910;2024-02-21T06:03:38;-5.45;72.09
78896;HTU21D;68284;59.124;37.910;2024-02-21T06:06:04;-5.42;71.91
78896;HTU21D;68284;59.124;37.910;2024-02-21T06:08:31;-5.38;71.76
78896;HTU21D;68284;59.124;37.910;2024-02-21T06:10:58;-5.34;71.63
78896;HTU21D;68284;59.124;37.910;2024-02-21T06:13:24;-5.31;71.55
78896;HTU21D;68284;59.124;37.910;2024-02-21T06:15:51;-5.25;71.22
78896;HTU21D;68284;59.124;37.910;2024-02-21T06:18:17;-5.25;71.05
78896;HTU21D;68284;59.124;37.910;2024-02-21T06:20:44;-5.26;71.00
78896;HTU21D;68284;59.124;37.910;2024-02-21T06:23:13;-5.28;71.00
78896;HTU21D;68284;59.124;37.910;2024-02-21T06:25:40;-5.31;70.78
78896;HTU21D;68284;59.124;37.910;2024-02-21T06:28:07;-5.41;70.74
78896;HTU21D;68284;59.124;37.910;2024-02-21T06:30:33;-5.47;70.89
78896;HTU21D;68284;59.124;37.910;2024-02-21T06:32:59;-5.50;71.01
78896;HTU21D;68284;59.124;37.910;2024-02-21T06:35:26;-5.49;71.03
78896;HTU21D;68284;59.124;37.910;2024-02-21T06:37:53;-5.47;70.96
78896;HTU21D;68284;59.124;37.910;2024-02-21T06:40:21;-5.47;70.81
78896;HTU21D;68284;59.124;37.910;2024-02-21T06:42:49;-5.50;70.85
78896;HTU21D;68284;59.124;37.910;2024-02-21T06:45:15;-5.52;70.81
78896;HTU21D;68284;59.124;37.910;2024-02-21T06:47:43;-5.56;70.75
78896;HTU21D;68284;59.124;37.910;2024-02-21T06:50:10;-5.61;70.84
78896;HTU21D;68284;59.124;37.910;2024-02-21T06:52:36;-5.70;70.88
78896;HTU21D;68284;59.124;37.910;2024-02-21T06:55:03;-5.73;71.05
78896;HTU21D;68284;59.124;37.910;2024-02-21T06:57:30;-5.72;71.08
78896;HTU21D;68284;59.124;37.910;2024-02-21T06:59:56;-5.73;71.08
78896;HTU21D;68284;59.124;37.910;2024-02-21T07:02:23;-5.74;70.97
78896;HTU21D;68284;59.124;37.910;2024-02-21T07:04:49;-5.72;71.03
78896;HTU21D;68284;59.124;37.910;2024-02-21T07:07:16;-5.68;71.04
78896;HTU21D;68284;59.124;37.910;2024-02-21T07:09:42;-5.65;70.95
78896;HTU21D;68284;59.124;37.910;2024-02-21T07:12:09;-5.62;70.98
78896;HTU21D;68284;59.124;37.910;2024-02-21T07:14:37;-5.54;71.00
78896;HTU21D;68284;59.124;37.910;2024-02-21T07:17:04;-5.43;71.00
78896;HTU21D;68284;59.124;37.910;2024-02-21T07:19:31;-5.30;70.89
78896;HTU21D;68284;59.124;37.910;2024-02-21T07:21:57;-5.16;70.66
78896;HTU21D;68284;59.124;37.910;2024-02-21T07:24:25;-5.07;70.47
78896;HTU21D;68284;59.124;37.910;2024-02-21T07:26:51;-4.97;70.42
78896;HTU21D;68284;59.124;37.910;2024-02-21T07:29:18;-4.85;70.25
78896;HTU21D;68284;59.124;37.910;2024-02-21T07:31:44;-4.80;69.92
78896;HTU21D;68284;59.124;37.910;2024-02-21T07:34:11;-4.78;70.05
78896;HTU21D;68284;59.124;37.910;2024-02-21T07:36:37;-4.73;70.03
78896;HTU21D;68284;59.124;37.910;2024-02-21T07:39:05;-4.66;70.18
78896;HTU21D;68284;59.124;37.910;2024-02-21T07:41:31;-4.51;70.03
78896;HTU21D;68284;59.124;37.910;2024-02-21T07:43:58;-4.37;69.83
78896;HTU21D;68284;59.124;37.910;2024-02-21T07:46:25;-4.24;69.75
78896;HTU21D;68284;59.124;37.910;2024-02-21T07:48:51;-4.14;69.44
78896;HTU21D;68284;59.124;37.910;2024-02-21T07:51:17;-4.10;69.07
78896;HTU21D;68284;59.124;37.910;2024-02-21T07:53:45;-4.14;69.00
78896;HTU21D;68284;59.124;37.910;2024-02-21T07:56:12;-4.17;69.32
78896;HTU21D;68284;59.124;37.910;2024-02-21T07:58:38;-4.19;69.29
78896;HTU21D;68284;59.124;37.910;2024-02-21T08:01:05;-4.17;69.26
78896;HTU21D;68284;59.124;37.910;2024-02-21T08:03:31;-4.15;69.27
78896;HTU21D;68284;59.124;37.910;2024-02-21T08:05:57;-4.07;69.41
78896;HTU21D;68284;59.124;37.910;2024-02-21T08:08:33;-3.94;69.08
78896;HTU21D;68284;59.124;37.910;2024-02-21T08:11:00;-3.84;69.02
78896;HTU21D;68284;59.124;37.910;2024-02-21T08:13:26;-3.75;68.81
78896;HTU21D;68284;59.124;37.910;2024-02-21T08:15:54;-3.71;68.55
78896;HTU21D;68284;59.124;37.910;2024-02-21T08:18:21;-3.65;68.59
78896;HTU21D;68284;59.124;37.910;2024-02-21T08:20:47;-3.52;68.74
78896;HTU21D;68284;59.124;37.910;2024-02-21T08:23:16;-3.37;68.42
78896;HTU21D;68284;59.124;37.910;2024-02-21T08:25:44;-3.24;68.30
78896;HTU21D;68284;59.124;37.910;2024-02-21T08:28:11;-3.09;68.23
78896;HTU21D;68284;59.124;37.910;2024-02-21T08:30:37;-2.89;68.10
78896;HTU21D;68284;59.124;37.910;2024-02-21T08:33:04;-2.72;67.88
78896;HTU21D;68284;59.124;37.910;2024-02-21T08:35:30;-2.57;67.40
78896;HTU21D;68284;59.124;37.910;2024-02-21T08:37:56;-2.44;67.51
78896;HTU21D;68284;59.124;37.910;2024-02-21T08:40:23;-2.28;67.35
78896;HTU21D;68284;59.124;37.910;2024-02-21T08:42:49;-2.17;67.10
78896;HTU21D;68284;59.124;37.910;2024-02-21T08:45:16;-2.08;66.56
78896;HTU21D;68284;59.124;37.910;2024-02-21T08:47:42;-2.06;66.77
78896;HTU21D;68284;59.124;37.910;2024-02-21T08:50:09;-1.98;66.78
78896;HTU21D;68284;59.124;37.910;2024-02-21T08:52:38;-1.80;66.64
78896;HTU21D;68284;59.124;37.910;2024-02-21T08:55:06;-1.65;66.59
78896;HTU21D;68284;59.124;37.910;2024-02-21T08:57:32;-1.47;66.31
78896;HTU21D;68284;59.124;37.910;2024-02-21T09:00:06;-1.23;66.16
78896;HTU21D;68284;59.124;37.910;2024-02-21T09:02:40;-1.02;66.01
78896;HTU21D;68284;59.124;37.910;2024-02-21T09:05:09;-0.77;65.64
78896;HTU21D;68284;59.124;37.910;2024-02-21T09:07:36;-0.60;65.38
78896;HTU21D;68284;59.124;37.910;2024-02-21T09:10:02;-0.42;65.20
78896;HTU21D;68284;59.124;37.910;2024-02-21T09:12:29;-0.24;65.14
78896;HTU21D;68284;59.124;37.910;2024-02-21T09:14:56;-0.03;64.89
78896;HTU21D;68284;59.124;37.910;2024-02-21T09:17:22;0.18;64.66
78896;HTU21D;68284;59.124;37.910;2024-02-21T09:19:53;0.35;64.08
78896;HTU21D;68284;59.124;37.910;2024-02-21T09:22:22;0.44;63.85
78896;HTU21D;68284;59.124;37.910;2024-02-21T09:24:48;0.46;63.41
78896;HTU21D;68284;59.124;37.910;2024-02-21T09:27:14;0.33;63.42
78896;HTU21D;68284;59.124;37.910;2024-02-21T09:29:41;0.22;63.30
78896;HTU21D;68284;59.124;37.910;2024-02-21T09:32:07;0.06;63.28
78896;HTU21D;68284;59.124;37.910;2024-02-21T09:34:33;-0.13;63.52
78896;HTU21D;68284;59.124;37.910;2024-02-21T09:37:00;-0.22;64.05
78896;HTU21D;68284;59.124;37.910;2024-02-21T09:39:26;-0.13;64.13
78896;HTU21D;68284;59.124;37.910;2024-02-21T09:42:06;0.03;63.74
78896;HTU21D;68284;59.124;37.910;2024-02-21T09:44:37;0.18;63.60
78896;HTU21D;68284;59.124;37.910;2024-02-21T09:47:16;0.28;62.83
78896;HTU21D;68284;59.124;37.910;2024-02-21T09:49:45;0.27;62.73
78896;HTU21D;68284;59.124;37.910;2024-02-21T09:52:15;0.28;62.96
78896;HTU21D;68284;59.124;37.910;2024-02-21T09:54:43;0.36;62.90
78896;HTU21D;68284;59.124;37.910;2024-02-21T09:57:11;0.42;62.73
78896;HTU21D;68284;59.124;37.910;2024-02-21T09:59:39;0.48;62.53
78896;HTU21D;68284;59.124;37.910;2024-02-21T10:02:07;0.51;62.39
78896;HTU21D;68284;59.124;37.910;2024-02-21T10:04:34;0.60;62.39
78896;HTU21D;68284;59.124;37.910;2024-02-21T10:07:00;0.74;62.18
78896;HTU21D;68284;59.124;37.910;2024-02-21T10:09:28;0.89;61.76
78896;HTU21D;68284;59.124;37.910;2024-02-21T10:12:08;1.04;61.78
78896;HTU21D;68284;59.124;37.910;2024-02-21T10:14:35;1.21;61.65
78896;HTU21D;68284;59.124;37.910;2024-02-21T10:17:02;1.39;61.34
78896;HTU21D;68284;59.124;37.910;2024-02-21T10:19:29;1.56;60.89
78896;HTU21D;68284;59.124;37.910;2024-02-21T10:22:07;1.63;60.55
78896;HTU21D;68284;59.124;37.910;2024-02-21T10:24:35;1.58;60.26
78896;HTU21D;68284;59.124;37.910;2024-02-21T10:27:06;1.46;60.22
78896;HTU21D;68284;59.124;37.910;2024-02-21T10:29:39;1.26;60.22
78896;HTU21D;68284;59.124;37.910;2024-02-21T10:32:10;1.13;60.56
78896;HTU21D;68284;59.124;37.910;2024-02-21T10:34:39;1.04;60.13
78896;HTU21D;68284;59.124;37.910;2024-02-21T10:37:07;1.02;60.30
78896;HTU21D;68284;59.124;37.910;2024-02-21T10:39:37;0.95;60.22
78896;HTU21D;68284;59.124;37.910;2024-02-21T10:42:04;0.87;60.25
78896;HTU21D;68284;59.124;37.910;2024-02-21T10:44:33;0.81;60.25
78896;HTU21D;68284;59.124;37.910;2024-02-21T10:46:59;0.79;60.23
78896;HTU21D;68284;59.124;37.910;2024-02-21T10:49:31;0.78;60.25
78896;HTU21D;68284;59.124;37.910;2024-02-21T10:55:21;0.78;60.15
78896;HTU21D;68284;59.124;37.910;2024-02-21T10:57:52;0.75;60.08
78896;HTU21D;68284;59.124;37.910;2024-02-21T11:00:19;0.79;60.15
78896;HTU21D;68284;59.124;37.910;2024-02-21T11:02:48;0.95;60.27
78896;HTU21D;68284;59.124;37.910;2024-02-21T11:05:15;1.07;60.15
78896;HTU21D;68284;59.124;37.910;2024-02-21T11:07:42;1.22;60.35
78896;HTU21D;68284;59.124;37.910;2024-02-21T11:10:23;1.57;60.38
78896;HTU21D;68284;59.124;37.910;2024-02-21T11:13:13;2.07;60.12
78896;HTU21D;68284;59.124;37.910;2024-02-21T11:15:40;2.57;59.80
78896;HTU21D;68284;59.124;37.910;2024-02-21T11:18:06;2.94;59.54
78896;HTU21D;68284;59.124;37.910;2024-02-21T11:20:37;3.34;59.32
78896;HTU21D;68284;59.124;37.910;2024-02-21T11:23:04;3.71;58.84
78896;HTU21D;68284;59.124;37.910;2024-02-21T11:25:31;4.01;58.58
78896;HTU21D;68284;59.124;37.910;2024-02-21T11:28:03;4.27;58.42
78896;HTU21D;68284;59.124;37.910;2024-02-21T11:30:30;4.50;58.03
78896;HTU21D;68284;59.124;37.910;2024-02-21T11:33:01;4.75;57.91
78896;HTU21D;68284;59.124;37.910;2024-02-21T11:35:35;5.02;57.27
78896;HTU21D;68284;59.124;37.910;2024-02-21T11:38:10;5.32;56.86
78896;HTU21D;68284;59.124;37.910;2024-02-21T11:40:39;5.65;56.61
78896;HTU21D;68284;59.124;37.910;2024-02-21T11:43:07;5.95;56.04
78896;HTU21D;68284;59.124;37.910;2024-02-21T11:45:33;6.12;55.60
78896;HTU21D;68284;59.124;37.910;2024-02-21T11:48:00;6.20;55.29
78896;HTU21D;68284;59.124;37.910;2024-02-21T11:50:29;6.06;54.81
78896;HTU21D;68284;59.124;37.910;2024-02-21T11:52:57;5.77;55.04
78896;HTU21D;68284;59.124;37.910;2024-02-21T11:55:23;5.55;55.02
78896;HTU21D;68284;59.124;37.910;2024-02-21T11:57:50;5.35;55.01
78896;HTU21D;68284;59.124;37.910;2024-02-21T12:00:17;5.26;55.63
78896;HTU21D;68284;59.124;37.910;2024-02-21T12:02:46;5.19;54.78
78896;HTU21D;68284;59.124;37.910;2024-02-21T12:05:13;5.03;54.53
78896;HTU21D;68284;59.124;37.910;2024-02-21T12:07:40;4.86;54.50
78896;HTU21D;68284;59.124;37.910;2024-02-21T12:10:11;4.73;54.39
78896;HTU21D;68284;59.124;37.910;2024-02-21T12:12:38;4.67;54.50
78896;HTU21D;68284;59.124;37.910;2024-02-21T12:15:06;4.79;54.36
78896;HTU21D;68284;59.124;37.910;2024-02-21T12:17:34;5.00;53.95
78896;HTU21D;68284;59.124;37.910;2024-02-21T12:20:03;5.16;53.72
78896;HTU21D;68284;59.124;37.910;2024-02-21T12:22:31;5.28;53.33
78896;HTU21D;68284;59.124;37.910;2024-02-21T12:25:03;5.40;53.08
78896;HTU21D;68284;59.124;37.910;2024-02-21T12:27:30;5.48;52.76
78896;HTU21D;68284;59.124;37.910;2024-02-21T12:29:56;5.50;52.56
78896;HTU21D;68284;59.124;37.910;2024-02-21T12:32:22;5.57;52.33
78896;HTU21D;68284;59.124;37.910;2024-02-21T12:34:49;5.62;52.18
78896;HTU21D;68284;59.124;37.910;2024-02-21T12:37:15;5.66;52.01
78896;HTU21D;68284;59.124;37.910;2024-02-21T12:39:42;5.66;51.84
78896;HTU21D;68284;59.124;37.910;2024-02-21T12:42:08;5.57;51.49
78896;HTU21D;68284;59.124;37.910;2024-02-21T12:44:37;5.35;51.75
78896;HTU21D;68284;59.124;37.910;2024-02-21T12:47:04;5.09;51.97
78896;HTU21D;68284;59.124;37.910;2024-02-21T12:49:30;4.83;52.20
78896;HTU21D;68284;59.124;37.910;2024-02-21T12:51:57;4.56;52.38
78896;HTU21D;68284;59.124;37.910;2024-02-21T12:54:24;4.34;52.53
78896;HTU21D;68284;59.124;37.910;2024-02-21T12:56:51;4.04;52.67
78896;HTU21D;68284;59.124;37.910;2024-02-21T12:59:18;3.72;53.17
78896;HTU21D;68284;59.124;37.910;2024-02-21T13:01:44;3.32;53.40
78896;HTU21D;68284;59.124;37.910;2024-02-21T13:04:11;3.04;53.84
78896;HTU21D;68284;59.124;37.910;2024-02-21T13:06:37;2.88;53.83
78896;HTU21D;68284;59.124;37.910;2024-02-21T13:09:04;2.82;53.74
78896;HTU21D;68284;59.124;37.910;2024-02-21T13:11:37;2.71;53.54
78896;HTU21D;68284;59.124;37.910;2024-02-21T13:14:03;2.66;53.46
78896;HTU21D;68284;59.124;37.910;2024-02-21T13:16:30;2.70;53.38
78896;HTU21D;68284;59.124;37.910;2024-02-21T13:18:56;2.79;53.00
78896;HTU21D;68284;59.124;37.910;2024-02-21T13:21:23;2.75;52.56
78896;HTU21D;68284;59.124;37.910;2024-02-21T13:23:49;2.59;52.72
78896;HTU21D;68284;59.124;37.910;2024-02-21T13:26:15;2.54;52.88
78896;HTU21D;68284;59.124;37.910;2024-02-21T13:28:42;2.47;52.74
78896;HTU21D;68284;59.124;37.910;2024-02-21T13:31:10;2.31;52.91
78896;HTU21D;68284;59.124;37.910;2024-02-21T13:33:37;2.11;53.06
78896;HTU21D;68284;59.124;37.910;2024-02-21T13:36:04;1.91;53.32
78896;HTU21D;68284;59.124;37.910;2024-02-21T13:38:31;1.66;53.48
78896;HTU21D;68284;59.124;37.910;2024-02-21T13:40:57;1.33;53.72
78896;HTU21D;68284;59.124;37.910;2024-02-21T13:43:23;0.96;54.12
78896;HTU21D;68284;59.124;37.910;2024-02-21T13:45:56;0.58;54.51
78896;HTU21D;68284;59.124;37.910;2024-02-21T13:48:24;0.22;54.86
78896;HTU21D;68284;59.124;37.910;2024-02-21T13:50:51;-0.10;55.15
78896;HTU21D;68284;59.124;37.910;2024-02-21T13:53:17;-0.43;55.49
78896;HTU21D;68284;59.124;37.910;2024-02-21T13:55:47;-0.77;55.82
78896;HTU21D;68284;59.124;37.910;2024-02-21T13:58:13;-1.09;56.23
78896;HTU21D;68284;59.124;37.910;2024-02-21T14:00:40;-1.36;56.51
78896;HTU21D;68284;59.124;37.910;2024-02-21T14:03:06;-1.61;56.74
78896;HTU21D;68284;59.124;37.910;2024-02-21T14:05:33;-1.86;57.16
78896;HTU21D;68284;59.124;37.910;2024-02-21T14:08:00;-2.09;57.43
78896;HTU21D;68284;59.124;37.910;2024-02-21T14:10:27;-2.30;57.78
78896;HTU21D;68284;59.124;37.910;2024-02-21T14:12:54;-2.51;58.54
78896;HTU21D;68284;59.124;37.910;2024-02-21T14:15:21;-2.73;58.42
78896;HTU21D;68284;59.124;37.910;2024-02-21T14:17:47;-2.90;58.96
78896;HTU21D;68284;59.124;37.910;2024-02-21T14:20:13;-3.06;59.57
78896;HTU21D;68284;59.124;37.910;2024-02-21T14:22:40;-3.21;60.04
78896;HTU21D;68284;59.124;37.910;2024-02-21T14:25:06;-3.31;60.16
78896;HTU21D;68284;59.124;37.910;2024-02-21T14:27:33;-3.38;60.28
78896;HTU21D;68284;59.124;37.910;2024-02-21T14:30:02;-3.43;60.81
78896;HTU21D;68284;59.124;37.910;2024-02-21T14:32:29;-3.49;60.83
78896;HTU21D;68284;59.124;37.910;2024-02-21T14:34:56;-3.51;61.35
78896;HTU21D;68284;59.124;37.910;2024-02-21T14:37:22;-3.52;61.79
78896;HTU21D;68284;59.124;37.910;2024-02-21T14:39:51;-3.52;61.68
78896;HTU21D;68284;59.124;37.910;2024-02-21T14:42:17;-3.53;62.24
78896;HTU21D;68284;59.124;37.910;2024-02-21T14:44:45;-3.52;62.33
78896;HTU21D;68284;59.124;37.910;2024-02-21T14:47:11;-3.51;62.59
78896;HTU21D;68284;59.124;37.910;2024-02-21T14:49:38;-3.51;63.07
78896;HTU21D;68284;59.124;37.910;2024-02-21T14:52:04;-3.50;62.99
78896;HTU21D;68284;59.124;37.910;2024-02-21T14:54:30;-3.48;63.24
78896;HTU21D;68284;59.124;37.910;2024-02-21T14:56:57;-3.46;63.29
78896;HTU21D;68284;59.124;37.910;2024-02-21T14:59:23;-3.47;63.40
78896;HTU21D;68284;59.124;37.910;2024-02-21T15:01:49;-3.49;64.10
78896;HTU21D;68284;59.124;37.910;2024-02-21T15:04:17;-3.49;64.17
78896;HTU21D;68284;59.124;37.910;2024-02-21T15:06:45;-3.51;64.43
78896;HTU21D;68284;59.124;37.910;2024-02-21T15:09:11;-3.52;64.60
78896;HTU21D;68284;59.124;37.910;2024-02-21T15:11:37;-3.51;64.68